sensor_id;sensor_type;location;lat;lon;timestamp;P1;durP1;ratioP1;P2;durP2;ratioP2
24301;SDS011;12421;49.732;20.078;2023-09-19T00:00:57;15.30;;;9.60;;
24301;SDS011;12421;49.732;20.078;2023-09-19T00:11:15;11.50;;;8.90;;
24301;SDS011;12421;49.732;20.078;2023-09-19T00:21:18;15.10;;;9.90;;
24301;SDS011;12421;49.732;20.078;2023-09-19T00:31:22;14.00;;;10.50;;
24301;SDS011;12421;49.732;20.078;2023-09-19T00:41:26;14.10;;;8.40;;
24301;SDS011;12421;49.732;20.078;2023-09-19T00:51:30;18.70;;;11.20;;
24301;SDS011;12421;49.732;20.078;2023-09-19T01:01:33;12.70;;;9.20;;
24301;SDS011;12421;49.732;20.078;2023-09-19T01:12:22;14.90;;;9.20;;
24301;SDS011;12421;49.732;20.078;2023-09-19T01:23:18;11.30;;;8.80;;
24301;SDS011;12421;49.732;20.078;2023-09-19T01:33:59;11.40;;;9.80;;
24301;SDS011;12421;49.732;20.078;2023-09-19T03:14:35;10.00;;;7.80;;
24301;SDS011;12421;49.732;20.078;2023-09-19T03:37:03;9.90;;;7.10;;
24301;SDS011;12421;49.732;20.078;2023-09-19T04:10:38;9.70;;;8.10;;
24301;SDS011;12421;49.732;20.078;2023-09-19T04:21:19;9.80;;;8.10;;
24301;SDS011;12421;49.732;20.078;2023-09-19T05:17:27;9.40;;;7.50;;
24301;SDS011;12421;49.732;20.078;2023-09-19T05:40:05;13.30;;;10.30;;
24301;SDS011;12421;49.732;20.078;2023-09-19T06:02:08;15.50;;;10.60;;
24301;SDS011;12421;49.732;20.078;2023-09-19T06:24:29;14.10;;;10.30;;
24301;SDS011;12421;49.732;20.078;2023-09-19T06:35:16;19.40;;;11.00;;
24301;SDS011;12421;49.732;20.078;2023-09-19T06:57:26;16.10;;;10.10;;
24301;SDS011;12421;49.732;20.078;2023-09-19T07:08:25;13.40;;;10.80;;
24301;SDS011;12421;49.732;20.078;2023-09-19T07:18:36;14.70;;;12.90;;
24301;SDS011;12421;49.732;20.078;2023-09-19T07:29:02;15.60;;;10.60;;
24301;SDS011;12421;49.732;20.078;2023-09-19T07:39:26;17.90;;;12.20;;
24301;SDS011;12421;49.732;20.078;2023-09-19T08:00:59;12.00;;;9.70;;
24301;SDS011;12421;49.732;20.078;2023-09-19T08:11:47;14.70;;;11.70;;
24301;SDS011;12421;49.732;20.078;2023-09-19T08:22:06;5.60;;;3.40;;
24301;SDS011;12421;49.732;20.078;2023-09-19T08:32:31;3.00;;;1.30;;
24301;SDS011;12421;49.732;20.078;2023-09-19T08:43:03;4.10;;;1.20;;
24301;SDS011;12421;49.732;20.078;2023-09-19T08:53:19;2.80;;;1.00;;
24301;SDS011;12421;49.732;20.078;2023-09-19T09:04:06;8.40;;;1.10;;
24301;SDS011;12421;49.732;20.078;2023-09-19T09:14:27;2.90;;;1.00;;
24301;SDS011;12421;49.732;20.078;2023-09-19T09:24:35;3.10;;;1.20;;
24301;SDS011;12421;49.732;20.078;2023-09-19T09:35:24;3.10;;;1.00;;
24301;SDS011;12421;49.732;20.078;2023-09-19T09:45:40;2.20;;;0.90;;
24301;SDS011;12421;49.732;20.078;2023-09-19T10:06:07;1.60;;;0.90;;
24301;SDS011;12421;49.732;20.078;2023-09-19T10:16:23;5.90;;;3.30;;
24301;SDS011;12421;49.732;20.078;2023-09-19T10:26:38;4.70;;;2.60;;
24301;SDS011;12421;49.732;20.078;2023-09-19T10:37:25;5.50;;;1.80;;
24301;SDS011;12421;49.732;20.078;2023-09-19T10:47:31;5.50;;;2.20;;
24301;SDS011;12421;49.732;20.078;2023-09-19T10:57:35;2.80;;;1.30;;
24301;SDS011;12421;49.732;20.078;2023-09-19T11:29:25;4.00;;;1.70;;
24301;SDS011;12421;49.732;20.078;2023-09-19T11:50:20;3.80;;;1.80;;
24301;SDS011;12421;49.732;20.078;2023-09-19T12:00:27;5.10;;;2.30;;
24301;SDS011;12421;49.732;20.078;2023-09-19T12:10:32;3.00;;;1.80;;
24301;SDS011;12421;49.732;20.078;2023-09-19T12:21:00;5.90;;;1.60;;
24301;SDS011;12421;49.732;20.078;2023-09-19T12:31:10;4.10;;;2.00;;
24301;SDS011;12421;49.732;20.078;2023-09-19T12:41:17;5.50;;;1.90;;
24301;SDS011;12421;49.732;20.078;2023-09-19T12:51:34;4.80;;;2.00;;
24301;SDS011;12421;49.732;20.078;2023-09-19T13:01:39;4.50;;;1.60;;
24301;SDS011;12421;49.732;20.078;2023-09-19T13:12:54;3.80;;;1.80;;
24301;SDS011;12421;49.732;20.078;2023-09-19T13:22:44;4.80;;;1.80;;
24301;SDS011;12421;49.732;20.078;2023-09-19T13:43:32;4.00;;;2.00;;
24301;SDS011;12421;49.732;20.078;2023-09-19T13:53:38;6.50;;;2.50;;
24301;SDS011;12421;49.732;20.078;2023-09-19T14:03:49;10.60;;;4.40;;
24301;SDS011;12421;49.732;20.078;2023-09-19T14:13:54;6.90;;;3.00;;
24301;SDS011;12421;49.732;20.078;2023-09-19T14:24:01;3.70;;;2.30;;
24301;SDS011;12421;49.732;20.078;2023-09-19T14:34:05;5.10;;;2.10;;
24301;SDS011;12421;49.732;20.078;2023-09-19T14:54:59;7.80;;;5.10;;
24301;SDS011;12421;49.732;20.078;2023-09-19T15:05:22;5.20;;;3.00;;
24301;SDS011;12421;49.732;20.078;2023-09-19T15:15:36;8.80;;;2.40;;
24301;SDS011;12421;49.732;20.078;2023-09-19T15:25:47;10.10;;;2.60;;
24301;SDS011;12421;49.732;20.078;2023-09-19T15:47:08;4.80;;;2.10;;
24301;SDS011;12421;49.732;20.078;2023-09-19T15:57:13;4.90;;;1.80;;
24301;SDS011;12421;49.732;20.078;2023-09-19T16:07:19;7.10;;;2.30;;
24301;SDS011;12421;49.732;20.078;2023-09-19T16:17:37;5.80;;;2.30;;
24301;SDS011;12421;49.732;20.078;2023-09-19T16:27:47;8.10;;;2.20;;
24301;SDS011;12421;49.732;20.078;2023-09-19T16:38:42;8.80;;;2.60;;
24301;SDS011;12421;49.732;20.078;2023-09-19T16:48:49;5.10;;;2.30;;
24301;SDS011;12421;49.732;20.078;2023-09-19T16:59:26;6.00;;;2.50;;
24301;SDS011;12421;49.732;20.078;2023-09-19T17:09:34;4.10;;;2.10;;
24301;SDS011;12421;49.732;20.078;2023-09-19T17:19:43;7.50;;;3.00;;
24301;SDS011;12421;49.732;20.078;2023-09-19T17:29:50;10.50;;;2.50;;
24301;SDS011;12421;49.732;20.078;2023-09-19T17:39:56;5.60;;;3.50;;
24301;SDS011;12421;49.732;20.078;2023-09-19T17:50:43;9.80;;;5.00;;
24301;SDS011;12421;49.732;20.078;2023-09-19T18:11:36;7.70;;;2.80;;
24301;SDS011;12421;49.732;20.078;2023-09-19T18:21:52;5.80;;;3.40;;
24301;SDS011;12421;49.732;20.078;2023-09-19T19:15:56;8.40;;;4.30;;
24301;SDS011;12421;49.732;20.078;2023-09-19T19:26:13;6.80;;;3.60;;
24301;SDS011;12421;49.732;20.078;2023-09-19T20:55:59;16.40;;;5.80;;
24301;SDS011;12421;49.732;20.078;2023-09-19T21:06:43;13.10;;;4.70;;
24301;SDS011;12421;49.732;20.078;2023-09-19T21:17:05;15.20;;;5.10;;
24301;SDS011;12421;49.732;20.078;2023-09-19T21:27:13;50.00;;;5.60;;
24301;SDS011;12421;49.732;20.078;2023-09-19T21:37:20;11.90;;;5.00;;
24301;SDS011;12421;49.732;20.078;2023-09-19T21:47:29;15.90;;;4.60;;
24301;SDS011;12421;49.732;20.078;2023-09-19T21:58:09;18.80;;;4.60;;
24301;SDS011;12421;49.732;20.078;2023-09-19T22:08:22;19.50;;;4.10;;
24301;SDS011;12421;49.732;20.078;2023-09-19T22:18:52;13.10;;;3.20;;
24301;SDS011;12421;49.732;20.078;2023-09-19T22:29:07;7.70;;;3.50;;
24301;SDS011;12421;49.732;20.078;2023-09-19T22:49:58;12.10;;;3.20;;
24301;SDS011;12421;49.732;20.078;2023-09-19T23:00:21;6.00;;;3.20;;
24301;SDS011;12421;49.732;20.078;2023-09-19T23:21:55;5.00;;;2.80;;
24301;SDS011;12421;49.732;20.078;2023-09-19T23:32:55;44.90;;;3.40;;
24301;SDS011;12421;49.732;20.078;2023-09-19T23:43:36;7.80;;;2.30;;
24301;SDS011;12421;49.732;20.078;2023-09-19T23:54:25;12.50;;;2.20;;
